< < Back
Terminal Aerodrome Forecast


Current Version              Previous Versions:   1  2  3  4  5  6  7  8  9  

Terminal Aerodrome Forecast

276
FTUS42 KTAE 251731
TAFDHN
TAF
KDHN 251731Z 2518/2618 22012KT P6SM BKN015
     FM252300 24012KT P6SM BKN040
     FM260900 25008KT P6SM BKN015
     FM261100 26007KT P6SM BKN007
     FM261500 27012KT P6SM BKN040=

Latest METAR

611
SAUS70 KWBC 251800 RRO
MTRDHN
METAR KDHN 251753Z 19013KT 10SM BKN014 BKN019 OVC025 27/23 A2981 RMK AO2
PRESFR SLP091 60018 T02670228 10267 20206 58020


USA.gov is the U.S. government's official web portal to all federal, state and local government web resources and services.